createdAt,value
2017-10-26T00:01:58.644Z,12.70
2017-10-26T00:04:25.919Z,13.38
2017-10-26T00:06:53.106Z,13.43
2017-10-26T00:09:19.649Z,13.30
2017-10-26T00:11:46.812Z,13.10
2017-10-26T00:14:14.010Z,13.30
2017-10-26T00:16:40.786Z,12.53
2017-10-26T00:19:07.316Z,13.50
2017-10-26T00:21:33.739Z,12.30
2017-10-26T00:24:00.170Z,13.05
2017-10-26T00:26:26.686Z,12.87
2017-10-26T00:28:53.241Z,12.67
2017-10-26T00:31:20.439Z,13.70
2017-10-26T00:33:46.972Z,13.20
2017-10-26T00:36:13.403Z,13.43
2017-10-26T00:38:39.831Z,12.68
2017-10-26T00:41:06.263Z,12.95
2017-10-26T00:43:32.694Z,13.52
2017-10-26T00:45:59.883Z,13.23
2017-10-26T00:48:26.426Z,12.70
2017-10-26T00:50:53.700Z,14.23
2017-10-26T00:53:20.262Z,12.45
2017-10-26T00:55:46.696Z,13.00
2017-10-26T00:58:13.941Z,13.30
2017-10-26T01:00:40.548Z,13.50
2017-10-26T01:03:07.810Z,13.13
2017-10-26T01:05:35.098Z,13.73
2017-10-26T01:08:02.372Z,13.93
2017-10-26T01:10:29.668Z,13.52
2017-10-26T01:12:56.210Z,14.25
2017-10-26T01:15:22.733Z,13.45
2017-10-26T01:17:49.320Z,12.70
2017-10-26T01:20:16.697Z,13.40
2017-10-26T01:22:43.974Z,13.75
2017-10-26T01:25:10.639Z,13.47
2017-10-26T01:27:37.193Z,13.23
2017-10-26T01:30:03.749Z,13.35
2017-10-26T01:32:31.025Z,13.75
2017-10-26T01:34:58.291Z,14.38
2017-10-26T01:37:25.572Z,13.60
2017-10-26T01:39:52.830Z,14.43
2017-10-26T01:42:19.326Z,14.32
2017-10-26T01:44:45.810Z,13.90
2017-10-26T01:47:12.338Z,13.97
2017-10-26T01:49:38.876Z,14.63
2017-10-26T01:52:06.688Z,14.07
2017-10-26T01:54:33.340Z,14.18
2017-10-26T01:56:59.916Z,15.18
2017-10-26T01:59:26.472Z,15.25
2017-10-26T02:01:53.043Z,14.48
2017-10-26T02:04:19.584Z,15.25
2017-10-26T02:06:46.116Z,14.90
2017-10-26T02:09:12.657Z,14.43
2017-10-26T02:11:39.970Z,15.63
2017-10-26T02:14:06.515Z,15.63
2017-10-26T02:16:33.066Z,15.93
2017-10-26T02:18:59.731Z,15.30
2017-10-26T02:21:26.285Z,15.90
2017-10-26T02:23:52.805Z,16.02
2017-10-26T02:26:19.401Z,15.77
2017-10-26T02:28:59.052Z,16.40
2017-10-26T02:31:34.507Z,15.40
2017-10-26T02:34:02.089Z,16.37
2017-10-26T02:36:28.647Z,16.70
2017-10-26T02:38:55.308Z,17.25
2017-10-26T02:41:22.584Z,17.77
2017-10-26T02:43:49.140Z,18.48
2017-10-26T02:46:15.634Z,18.52
2017-10-26T02:48:42.083Z,18.50
2017-10-26T02:51:08.530Z,18.70
2017-10-26T02:53:35.078Z,17.87
2017-10-26T02:56:01.497Z,18.87
2017-10-26T02:58:28.900Z,20.40
2017-10-26T03:00:56.182Z,20.10
2017-10-26T03:03:22.830Z,19.98
2017-10-26T03:05:50.315Z,19.40
2017-10-26T03:08:17.551Z,20.35
2017-10-26T03:10:44.149Z,19.53
2017-10-26T03:13:10.705Z,20.65
2017-10-26T03:15:38.090Z,18.48
2017-10-26T03:18:04.651Z,23.70
2017-10-26T03:20:31.199Z,21.62
2017-10-26T03:22:58.582Z,19.75
2017-10-26T03:25:25.201Z,20.30
2017-10-26T03:27:51.695Z,18.73
2017-10-26T03:30:18.788Z,20.40
2017-10-26T03:32:45.218Z,20.37
2017-10-26T03:35:11.633Z,20.58
2017-10-26T03:37:38.132Z,21.87
2017-10-26T03:40:05.405Z,20.48
2017-10-26T03:42:32.725Z,21.25
2017-10-26T03:44:59.182Z,22.23
2017-10-26T03:47:25.650Z,21.83
2017-10-26T03:49:52.130Z,21.40
2017-10-26T03:52:19.424Z,21.90
2017-10-26T03:54:46.700Z,22.42
2017-10-26T03:57:13.890Z,25.52
2017-10-26T03:59:40.432Z,23.65
2017-10-26T04:02:07.704Z,19.27
2017-10-26T04:04:34.160Z,22.40
2017-10-26T04:07:01.538Z,21.50
2017-10-26T04:09:28.732Z,21.62
2017-10-26T04:11:55.268Z,20.52
2017-10-26T04:14:21.927Z,21.42
2017-10-26T04:16:49.125Z,21.20
2017-10-26T04:19:15.571Z,21.23
2017-10-26T04:21:42.122Z,21.83
2017-10-26T04:24:08.651Z,20.62
2017-10-26T04:26:35.932Z,22.13
2017-10-26T04:29:03.142Z,22.00
2017-10-26T04:31:29.785Z,23.25
2017-10-26T04:33:56.309Z,22.93
2017-10-26T04:36:23.000Z,21.67
2017-10-26T04:38:50.376Z,21.58
2017-10-26T04:41:17.673Z,22.98
2017-10-26T04:43:44.157Z,27.70
2017-10-26T04:46:10.768Z,23.48
2017-10-26T04:48:38.044Z,24.90
2017-10-26T04:51:05.118Z,22.62
2017-10-26T04:53:31.672Z,22.55
2017-10-26T04:55:58.893Z,23.30
2017-10-26T04:58:25.402Z,26.90
2017-10-26T05:00:51.870Z,25.83
2017-10-26T05:03:18.418Z,25.10
2017-10-26T05:05:44.982Z,24.37
2017-10-26T05:08:11.474Z,27.60
2017-10-26T05:10:37.944Z,24.90
2017-10-26T05:13:04.389Z,25.03
2017-10-26T05:15:30.842Z,25.23
2017-10-26T05:17:57.335Z,24.70
2017-10-26T05:20:23.761Z,28.98
2017-10-26T05:22:50.221Z,25.48
2017-10-26T05:25:16.729Z,25.55
2017-10-26T05:27:44.003Z,28.02
2017-10-26T05:30:11.277Z,24.08
2017-10-26T05:32:38.438Z,23.52
2017-10-26T05:35:05.787Z,24.37
2017-10-26T05:37:32.295Z,23.02
2017-10-26T05:39:58.840Z,24.95
2017-10-26T05:42:25.344Z,32.25
2017-10-26T05:44:51.860Z,24.63
2017-10-26T05:47:18.418Z,23.87
2017-10-26T05:49:44.971Z,26.27
2017-10-26T05:52:12.240Z,24.95
2017-10-26T05:54:39.523Z,23.95
2017-10-26T05:57:06.079Z,22.95
2017-10-26T05:59:33.353Z,23.75
2017-10-26T06:01:59.914Z,23.98
2017-10-26T06:04:26.471Z,22.65
2017-10-26T06:06:53.763Z,23.95
2017-10-26T06:09:20.201Z,23.23
2017-10-26T06:11:47.491Z,24.60
2017-10-26T06:14:14.035Z,26.10
2017-10-26T06:16:41.219Z,23.17
2017-10-26T06:19:07.673Z,22.40
2017-10-26T06:21:34.189Z,22.40
2017-10-26T06:24:00.665Z,23.83
2017-10-26T06:26:27.867Z,24.63
2017-10-26T06:28:54.283Z,22.60
2017-10-26T06:31:20.743Z,23.17
2017-10-26T06:33:47.218Z,23.97
2017-10-26T06:36:14.494Z,22.70
2017-10-26T06:38:40.958Z,23.48
2017-10-26T06:41:07.615Z,22.40
2017-10-26T06:43:34.168Z,23.25
2017-10-26T06:46:01.692Z,24.70
2017-10-26T06:48:28.207Z,25.73
2017-10-26T06:50:54.765Z,25.00
2017-10-26T06:53:21.340Z,22.80
2017-10-26T06:55:47.852Z,27.30
2017-10-26T06:58:14.339Z,26.00
2017-10-26T07:00:40.807Z,25.10
2017-10-26T07:03:07.351Z,21.15
2017-10-26T07:05:34.586Z,22.55
2017-10-26T07:08:01.188Z,22.45
2017-10-26T07:10:27.745Z,23.20
2017-10-26T07:12:54.937Z,22.70
2017-10-26T07:15:21.474Z,22.50
2017-10-26T07:17:48.851Z,23.42
2017-10-26T07:20:15.308Z,21.62
2017-10-26T07:22:41.864Z,21.52
2017-10-26T07:25:09.142Z,21.70
2017-10-26T07:27:36.340Z,21.40
2017-10-26T07:30:02.832Z,21.05
2017-10-26T07:32:29.308Z,21.77
2017-10-26T07:34:56.509Z,20.75
2017-10-26T07:37:23.590Z,21.75
2017-10-26T07:39:50.228Z,21.25
2017-10-26T07:42:16.791Z,20.80
2017-10-26T07:44:43.346Z,21.33
2017-10-26T07:47:10.724Z,20.80
2017-10-26T07:49:37.801Z,20.95
2017-10-26T07:52:04.321Z,21.40
2017-10-26T07:54:30.915Z,19.85
2017-10-26T07:56:57.468Z,20.65
2017-10-26T07:59:24.026Z,19.75
2017-10-26T08:01:50.585Z,20.73
2017-10-26T08:04:17.143Z,20.70
2017-10-26T08:06:43.619Z,19.33
2017-10-26T08:09:10.157Z,19.48
2017-10-26T08:11:37.345Z,19.60
2017-10-26T08:14:03.865Z,19.10
2017-10-26T08:16:30.432Z,18.53
2017-10-26T08:18:57.632Z,18.77
2017-10-26T08:21:24.176Z,18.40
2017-10-26T08:23:50.632Z,18.08
2017-10-26T08:26:17.880Z,18.35
2017-10-26T08:28:46.548Z,21.02
2017-10-26T08:31:13.172Z,17.50
2017-10-26T08:33:40.366Z,17.08
2017-10-26T08:36:06.903Z,17.33
2017-10-26T08:38:34.178Z,17.10
2017-10-26T08:41:01.451Z,17.50
2017-10-26T08:43:27.940Z,17.20
2017-10-26T08:45:54.364Z,16.90
2017-10-26T08:48:21.638Z,18.30
2017-10-26T08:50:48.908Z,17.30
2017-10-26T08:53:16.289Z,17.42
2017-10-26T08:55:43.665Z,18.73
2017-10-26T08:58:11.043Z,17.90
2017-10-26T09:00:38.729Z,20.27
2017-10-26T09:03:06.048Z,17.50
2017-10-26T09:05:34.110Z,18.20
2017-10-26T09:08:00.755Z,17.60
2017-10-26T09:10:28.077Z,17.45
2017-10-26T09:12:54.586Z,17.10
2017-10-26T09:15:21.878Z,19.08
2017-10-26T09:17:48.434Z,19.48
2017-10-26T09:20:14.931Z,18.58
2017-10-26T09:22:41.536Z,18.50
2017-10-26T09:25:08.846Z,18.70
2017-10-26T09:27:35.472Z,20.63
2017-10-26T09:30:02.850Z,19.03
2017-10-26T09:32:29.396Z,19.05
2017-10-26T09:34:56.787Z,19.40
2017-10-26T09:37:23.343Z,20.00
2017-10-26T09:39:50.720Z,18.73
2017-10-26T09:42:18.096Z,20.30
2017-10-26T09:44:44.632Z,19.62
2017-10-26T09:47:11.214Z,17.62
2017-10-26T09:49:37.873Z,17.73
2017-10-26T09:52:05.183Z,18.85
2017-10-26T09:54:31.727Z,18.12
2017-10-26T09:56:58.269Z,18.55
2017-10-26T09:59:24.825Z,17.98
2017-10-26T10:01:52.113Z,17.80
2017-10-26T10:04:18.654Z,19.10
2017-10-26T10:06:45.884Z,17.30
2017-10-26T10:09:13.515Z,18.33
2017-10-26T10:11:40.160Z,17.23
2017-10-26T10:14:07.460Z,17.00
2017-10-26T10:16:34.112Z,17.10
2017-10-26T10:19:00.872Z,18.60
2017-10-26T10:21:27.428Z,18.67
2017-10-26T10:23:54.658Z,16.92
2017-10-26T10:26:21.262Z,16.70
2017-10-26T10:28:48.552Z,17.08
2017-10-26T10:31:15.123Z,17.27
2017-10-26T10:33:41.693Z,18.93
2017-10-26T10:36:08.281Z,17.47
2017-10-26T10:38:34.867Z,17.30
2017-10-26T10:41:02.555Z,17.40
2017-10-26T10:43:29.882Z,24.63
2017-10-26T10:45:56.445Z,19.30
2017-10-26T10:48:24.073Z,18.70
2017-10-26T10:50:50.733Z,15.68
2017-10-26T10:53:18.009Z,16.80
2017-10-26T10:55:44.669Z,17.48
2017-10-26T10:58:11.329Z,17.30
2017-10-26T11:00:37.990Z,17.70
2017-10-26T11:03:04.533Z,15.30
2017-10-26T11:05:31.065Z,16.00
2017-10-26T11:07:57.665Z,16.08
2017-10-26T11:10:25.052Z,16.37
2017-10-26T11:12:51.600Z,15.45
2017-10-26T11:15:18.266Z,16.30
2017-10-26T11:17:44.868Z,16.62
2017-10-26T11:20:11.480Z,17.30
2017-10-26T11:22:38.855Z,16.85
2017-10-26T11:25:06.118Z,16.45
2017-10-26T11:27:33.407Z,16.70
2017-10-26T11:30:00.813Z,18.25
2017-10-26T11:32:27.443Z,17.20
2017-10-26T11:34:54.103Z,18.95
2017-10-26T11:37:21.377Z,18.40
2017-10-26T11:39:47.931Z,18.08
2017-10-26T11:42:15.312Z,20.45
2017-10-26T11:44:42.586Z,18.67
2017-10-26T11:47:09.120Z,17.35
2017-10-26T11:49:35.706Z,18.37
2017-10-26T11:52:03.019Z,18.62
2017-10-26T11:54:29.655Z,19.10
2017-10-26T11:56:56.214Z,19.55
2017-10-26T11:59:22.861Z,19.70
2017-10-26T12:01:49.411Z,20.15
2017-10-26T12:04:15.934Z,20.20
2017-10-26T12:06:42.537Z,20.00
2017-10-26T12:09:09.127Z,18.85
2017-10-26T12:11:35.650Z,17.52
2017-10-26T12:14:02.930Z,17.50
2017-10-26T12:16:29.586Z,17.25
2017-10-26T12:18:56.248Z,18.80
2017-10-26T12:21:23.528Z,18.63
2017-10-26T12:23:50.124Z,17.67
2017-10-26T12:26:16.742Z,22.80
2017-10-26T12:28:44.122Z,20.40
2017-10-26T12:31:10.879Z,33.80
2017-10-26T12:33:38.258Z,18.10
2017-10-26T12:36:05.735Z,32.72
2017-10-26T12:38:33.418Z,15.30
2017-10-26T12:41:00.801Z,14.95
2017-10-26T12:43:27.378Z,14.90
2017-10-26T12:45:54.017Z,15.20
2017-10-26T12:48:21.154Z,13.32
2017-10-26T12:50:48.455Z,13.88
2017-10-26T12:53:15.720Z,15.48
2017-10-26T12:55:43.011Z,23.02
2017-10-26T12:58:10.343Z,13.85
2017-10-26T13:00:37.534Z,12.80
2017-10-26T13:03:04.072Z,13.25
2017-10-26T13:05:30.609Z,13.60
2017-10-26T13:07:57.144Z,15.85
2017-10-26T13:10:23.794Z,14.52
2017-10-26T13:12:50.375Z,38.05
2017-10-26T13:15:17.012Z,14.90
2017-10-26T13:17:44.493Z,14.85
2017-10-26T13:20:11.120Z,14.00
2017-10-26T13:22:37.610Z,15.57
2017-10-26T13:25:04.884Z,15.60
2017-10-26T13:27:31.385Z,17.12
2017-10-26T13:29:57.829Z,16.75
2017-10-26T13:32:24.563Z,15.87
2017-10-26T13:34:51.107Z,16.60
2017-10-26T13:37:18.373Z,17.12
2017-10-26T13:39:45.603Z,16.30
2017-10-26T13:42:12.224Z,16.73
2017-10-26T13:44:39.439Z,16.58
2017-10-26T13:47:05.904Z,15.90
2017-10-26T13:49:32.513Z,16.08
2017-10-26T13:51:59.071Z,15.80
2017-10-26T13:54:26.283Z,22.05
2017-10-26T13:56:52.709Z,17.80
2017-10-26T13:59:19.260Z,15.23
2017-10-26T14:01:45.797Z,14.60
2017-10-26T14:04:12.318Z,15.38
2017-10-26T14:06:38.934Z,19.80
2017-10-26T14:09:05.478Z,18.90
2017-10-26T14:11:32.773Z,19.02
2017-10-26T14:13:59.325Z,14.15
2017-10-26T14:16:25.884Z,14.80
2017-10-26T14:18:53.772Z,14.10
2017-10-26T14:21:21.250Z,14.70
2017-10-26T14:23:48.525Z,16.70
2017-10-26T14:26:15.191Z,13.45
2017-10-26T14:28:41.948Z,14.87
2017-10-26T14:31:09.224Z,13.88
2017-10-26T14:33:35.782Z,13.80
2017-10-26T14:36:03.494Z,14.30
2017-10-26T14:38:30.024Z,13.27
2017-10-26T14:40:58.248Z,15.27
2017-10-26T14:43:24.793Z,13.00
2017-10-26T14:45:51.440Z,13.43
2017-10-26T14:48:18.714Z,13.60
2017-10-26T14:50:45.905Z,13.25
2017-10-26T14:53:12.443Z,12.60
2017-10-26T14:55:39.539Z,16.25
2017-10-26T14:58:06.046Z,13.18
2017-10-26T15:00:32.559Z,12.00
2017-10-26T15:02:59.163Z,12.33
2017-10-26T15:05:25.647Z,13.10
2017-10-26T15:07:53.227Z,13.10
2017-10-26T15:10:19.812Z,15.70
2017-10-26T15:12:46.445Z,12.70
2017-10-26T15:15:13.727Z,12.45
2017-10-26T15:17:40.388Z,16.27
2017-10-26T15:20:07.040Z,15.90
2017-10-26T15:22:35.340Z,13.95
2017-10-26T15:25:02.001Z,12.63
2017-10-26T15:27:29.274Z,12.77
2017-10-26T15:29:56.554Z,12.80
2017-10-26T15:32:23.620Z,13.60
2017-10-26T15:34:50.896Z,12.63
2017-10-26T15:37:17.553Z,18.00
2017-10-26T15:39:44.215Z,28.08
2017-10-26T15:42:11.181Z,31.27
2017-10-26T15:44:38.455Z,21.15
2017-10-26T15:47:05.592Z,15.70
2017-10-26T15:49:32.901Z,18.02
2017-10-26T15:51:59.407Z,14.77
2017-10-26T15:54:26.121Z,18.23
2017-10-26T15:56:52.701Z,14.00
2017-10-26T15:59:19.241Z,13.10
2017-10-26T16:01:45.812Z,11.55
2017-10-26T16:04:12.560Z,14.75
2017-10-26T16:06:39.052Z,14.47
2017-10-26T16:09:05.677Z,12.93
2017-10-26T16:11:32.236Z,12.80
2017-10-26T16:13:58.722Z,13.38
2017-10-26T16:16:25.354Z,11.55
2017-10-26T16:18:52.114Z,12.80
2017-10-26T16:21:18.665Z,12.10
2017-10-26T16:23:46.785Z,12.50
2017-10-26T16:26:13.427Z,12.60
2017-10-26T16:28:39.986Z,14.77
2017-10-26T16:31:06.543Z,11.60
2017-10-26T16:33:34.123Z,11.20
2017-10-26T16:36:01.347Z,9.60
2017-10-26T16:38:30.157Z,10.40
2017-10-26T16:40:56.766Z,11.75
2017-10-26T16:43:24.143Z,11.57
2017-10-26T16:45:50.700Z,10.10
2017-10-26T16:48:17.977Z,10.95
2017-10-26T16:50:44.532Z,11.23
2017-10-26T16:53:11.771Z,10.38
2017-10-26T16:55:38.572Z,10.20
2017-10-26T16:58:06.015Z,10.77
2017-10-26T17:00:33.641Z,9.85
2017-10-26T17:03:00.294Z,10.07
2017-10-26T17:05:26.961Z,10.48
2017-10-26T17:07:54.840Z,11.30
2017-10-26T17:10:22.549Z,11.40
2017-10-26T17:12:49.156Z,10.32
2017-10-26T17:15:16.374Z,10.57
2017-10-26T17:17:43.224Z,10.63
2017-10-26T17:20:09.755Z,11.70
2017-10-26T17:22:36.747Z,11.18
2017-10-26T17:25:03.409Z,13.18
2017-10-26T17:27:30.683Z,13.57
2017-10-26T17:29:57.549Z,13.35
2017-10-26T17:32:24.413Z,13.20
2017-10-26T17:34:50.975Z,13.43
2017-10-26T17:37:18.554Z,13.73
2017-10-26T17:39:45.218Z,14.18
2017-10-26T17:42:11.877Z,15.43
2017-10-26T17:44:38.440Z,17.55
2017-10-26T17:47:04.992Z,17.00
2017-10-26T17:49:31.550Z,14.10
2017-10-26T17:51:58.746Z,14.20
2017-10-26T17:54:25.182Z,13.30
2017-10-26T17:56:51.737Z,13.32
2017-10-26T17:59:18.398Z,13.10
2017-10-26T18:01:44.957Z,13.40
2017-10-26T18:04:12.918Z,12.32
2017-10-26T18:06:40.224Z,13.02
2017-10-26T18:09:07.701Z,13.80
2017-10-26T18:11:34.465Z,13.60
2017-10-26T18:14:01.228Z,13.50
2017-10-26T18:16:27.890Z,13.07
2017-10-26T18:18:56.388Z,12.20
2017-10-26T18:21:23.263Z,13.45
2017-10-26T18:23:50.120Z,13.10
2017-10-26T18:26:18.007Z,18.27
2017-10-26T18:28:44.873Z,19.98
2017-10-26T18:31:12.147Z,29.02
2017-10-26T18:33:39.322Z,30.90
2017-10-26T18:36:06.697Z,27.95
2017-10-26T18:38:33.879Z,93.10
2017-10-26T18:41:02.565Z,64.12
2017-10-26T18:43:30.769Z,38.10
2017-10-26T18:45:58.353Z,17.75
2017-10-26T18:48:24.828Z,15.05
2017-10-26T18:50:58.504Z,69.93
2017-10-26T18:53:25.500Z,31.20
2017-10-26T18:55:52.157Z,17.10
2017-10-26T18:58:22.408Z,29.80
2017-10-26T19:00:50.386Z,25.75
2017-10-26T19:03:17.046Z,18.30
2017-10-26T19:05:44.526Z,14.77
2017-10-26T19:08:11.183Z,13.60
2017-10-26T19:10:38.665Z,14.20
2017-10-26T19:13:06.455Z,14.25
2017-10-26T19:15:33.727Z,14.30
2017-10-26T19:18:01.460Z,13.10
2017-10-26T19:20:28.601Z,13.65
2017-10-26T19:22:56.678Z,13.70
2017-10-26T19:25:23.640Z,14.50
2017-10-26T19:27:50.303Z,14.70
2017-10-26T19:30:17.063Z,14.50
2017-10-26T19:32:44.032Z,14.55
2017-10-26T19:35:10.895Z,14.60
2017-10-26T19:37:37.555Z,14.32
2017-10-26T19:40:04.527Z,14.38
2017-10-26T19:42:32.209Z,13.90
2017-10-26T19:44:59.278Z,14.13
2017-10-26T19:47:26.143Z,14.90
2017-10-26T19:49:54.339Z,14.35
2017-10-26T19:52:20.999Z,15.45
2017-10-26T19:54:48.272Z,19.70
2017-10-26T19:57:15.654Z,15.50
2017-10-26T19:59:43.028Z,16.20
2017-10-26T20:02:11.594Z,15.20
2017-10-26T20:04:38.291Z,16.55
2017-10-26T20:07:05.773Z,17.20
2017-10-26T20:09:33.798Z,19.75
2017-10-26T20:12:02.058Z,28.52
2017-10-26T20:14:29.537Z,21.65
2017-10-26T20:16:56.283Z,18.35
2017-10-26T20:19:23.683Z,18.75
2017-10-26T20:21:50.354Z,17.20
2017-10-26T20:24:16.895Z,16.70
2017-10-26T20:26:43.555Z,18.02
2017-10-26T20:29:10.109Z,17.60
2017-10-26T20:31:37.603Z,17.45
2017-10-26T20:34:04.150Z,17.10
2017-10-26T20:36:31.541Z,17.55
2017-10-26T20:38:58.095Z,17.50
2017-10-26T20:41:25.544Z,16.83
2017-10-26T20:43:52.943Z,17.67
2017-10-26T20:46:20.217Z,17.58
2017-10-26T20:48:46.778Z,17.05
2017-10-26T20:51:19.472Z,16.55
2017-10-26T20:53:52.164Z,16.70
2017-10-26T20:56:25.780Z,18.08
2017-10-26T20:58:59.200Z,17.25
2017-10-26T21:01:31.862Z,16.95
2017-10-26T21:04:04.582Z,16.80
2017-10-26T21:06:32.062Z,17.02
2017-10-26T21:09:04.549Z,16.30
2017-10-26T21:11:36.964Z,16.67
2017-10-26T21:14:20.286Z,15.88
2017-10-26T21:16:46.709Z,16.10
2017-10-26T21:19:13.891Z,16.73
2017-10-26T21:21:41.085Z,16.58
2017-10-26T21:24:07.543Z,15.90
2017-10-26T21:26:34.034Z,16.27
2017-10-26T21:29:01.079Z,15.77
2017-10-26T21:31:27.515Z,15.82
2017-10-26T21:33:53.959Z,16.42
2017-10-26T21:36:21.238Z,16.00
2017-10-26T21:38:47.800Z,16.33
2017-10-26T21:41:14.280Z,15.82
2017-10-26T21:43:40.741Z,15.75
2017-10-26T21:46:07.188Z,17.65
2017-10-26T21:48:33.620Z,17.27
2017-10-26T21:51:00.780Z,16.48
2017-10-26T21:53:27.966Z,16.23
2017-10-26T21:55:54.440Z,17.02
2017-10-26T21:58:20.888Z,16.92
2017-10-26T22:00:47.351Z,17.27
2017-10-26T22:03:13.896Z,17.60
2017-10-26T22:05:40.374Z,17.35
2017-10-26T22:08:07.741Z,17.05
2017-10-26T22:10:34.788Z,17.48
2017-10-26T22:13:02.102Z,17.90
2017-10-26T22:15:28.541Z,17.45
2017-10-26T22:17:54.957Z,16.70
2017-10-26T22:20:22.360Z,17.83
2017-10-26T22:22:48.917Z,17.48
2017-10-26T22:25:16.192Z,17.77
2017-10-26T22:27:42.676Z,17.30
2017-10-26T22:30:09.195Z,17.50
2017-10-26T22:32:36.407Z,18.20
2017-10-26T22:35:03.322Z,18.92
2017-10-26T22:37:29.906Z,20.90
2017-10-26T22:39:57.730Z,19.20
2017-10-26T22:42:24.230Z,18.10
2017-10-26T22:44:51.378Z,18.90
2017-10-26T22:47:17.814Z,19.70
2017-10-26T22:49:44.334Z,19.60
2017-10-26T22:52:11.266Z,19.50
2017-10-26T22:54:37.719Z,19.77
2017-10-26T22:57:04.187Z,20.50
2017-10-26T22:59:30.772Z,20.00
2017-10-26T23:01:58.045Z,20.07
2017-10-26T23:04:25.322Z,21.15
2017-10-26T23:06:52.523Z,21.10
2017-10-26T23:09:19.053Z,20.17
2017-10-26T23:11:45.535Z,22.25
2017-10-26T23:14:11.988Z,21.08
2017-10-26T23:16:39.158Z,21.67
2017-10-26T23:19:05.715Z,21.17
2017-10-26T23:21:32.252Z,21.37
2017-10-26T23:23:58.820Z,22.47
2017-10-26T23:26:25.267Z,21.52
2017-10-26T23:28:51.827Z,21.73
2017-10-26T23:31:19.102Z,22.77
2017-10-26T23:33:46.379Z,22.10
2017-10-26T23:36:12.933Z,22.08
2017-10-26T23:38:40.209Z,21.08
2017-10-26T23:41:07.482Z,21.45
2017-10-26T23:43:34.670Z,23.00
2017-10-26T23:46:02.054Z,22.37
2017-10-26T23:48:28.494Z,21.52
2017-10-26T23:50:56.990Z,22.08
2017-10-26T23:53:23.430Z,21.83
2017-10-26T23:55:51.174Z,24.05
2017-10-26T23:58:17.687Z,22.80
